Time;durP1;ratioP1;P1;durP2;ratioP2;P2;SDS_P1;SDS_P2;PMS_P1;PMS_P2;Temp;Humidity;BMP_temperature;BMP_pressure;BME280_temperature;BME280_humidity;BME280_pressure;Samples;Min_cycle;Max_cycle;Signal;HPM_P1;HPM_P2
2022/08/18 00:02:04;;;;;;;63.00;43.20;;;18.00;99.90;;;;;;5074161;28;20905;-66
2022/08/18 00:04:34;;;;;;;63.23;42.77;;;18.00;99.90;;;;;;5074076;28;20822;-64
2022/08/18 00:07:01;;;;;;;62.60;43.67;;;18.00;99.90;;;;;;5073644;28;20212;-65
2022/08/18 00:09:28;;;;;;;65.77;43.60;;;17.90;99.90;;;;;;5073849;28;20216;-65
2022/08/18 00:11:55;;;;;;;60.00;41.57;;;17.90;99.90;;;;;;5073783;28;20232;-65
2022/08/18 00:14:21;;;;;;;70.37;46.10;;;17.90;99.90;;;;;;5073939;28;20263;-66
2022/08/18 00:16:49;;;;;;;68.60;44.17;;;17.90;99.90;;;;;;5073565;28;20250;-65
2022/08/18 00:19:15;;;;;;;68.13;45.63;;;17.90;99.90;;;;;;5073554;28;20205;-65
2022/08/18 00:21:43;;;;;;;70.90;46.50;;;17.80;99.90;;;;;;5073702;28;20209;-66
2022/08/18 00:24:11;;;;;;;72.63;45.97;;;17.80;99.90;;;;;;5073933;28;20635;-65
2022/08/18 00:26:37;;;;;;;80.33;47.83;;;17.70;99.90;;;;;;5073405;28;20208;-65
2022/08/18 00:29:04;;;;;;;82.40;50.57;;;17.70;99.90;;;;;;5073858;28;20209;-66
2022/08/18 00:31:31;;;;;;;88.47;50.50;;;17.60;99.90;;;;;;5073579;28;20628;-65
2022/08/18 00:33:57;;;;;;;96.67;54.53;;;17.60;99.90;;;;;;5073615;28;20312;-65
2022/08/18 00:36:25;;;;;;;99.57;57.33;;;17.60;99.90;;;;;;5072924;28;20278;-65
2022/08/18 00:38:53;;;;;;;96.50;55.77;;;17.60;99.90;;;;;;5073787;28;20254;-65
2022/08/18 00:41:21;;;;;;;101.53;56.30;;;17.60;99.90;;;;;;5073265;28;20679;-65
2022/08/18 00:43:50;;;;;;;99.53;54.87;;;17.70;99.90;;;;;;5073269;28;20286;-64
2022/08/18 00:46:19;;;;;;;96.83;53.53;;;17.70;99.90;;;;;;5072957;28;20209;-66
2022/08/18 00:48:47;;;;;;;95.03;53.20;;;17.70;99.90;;;;;;5073216;28;20209;-66
2022/08/18 00:51:18;;;;;;;100.50;54.97;;;17.70;99.90;;;;;;5073424;28;20212;-65
2022/08/18 00:53:49;;;;;;;97.73;53.60;;;17.60;99.90;;;;;;5073395;28;20632;-65
2022/08/18 00:56:24;;;;;;;105.63;55.63;;;17.60;99.90;;;;;;5073062;28;20258;-64
2022/08/18 00:58:57;;;;;;;103.00;56.23;;;17.60;99.90;;;;;;5073119;28;20685;-65
2022/08/18 01:01:28;;;;;;;98.53;54.47;;;17.60;99.90;;;;;;5072873;28;20804;-65
2022/08/18 01:04:00;;;;;;;92.57;52.13;;;17.60;99.90;;;;;;5072933;28;20253;-65
2022/08/18 01:06:32;;;;;;;99.33;53.87;;;17.60;99.90;;;;;;5072626;28;20208;-65
2022/08/18 01:09:00;;;;;;;99.87;55.70;;;17.60;99.90;;;;;;5072846;28;20201;-66
2022/08/18 01:11:28;;;;;;;93.27;53.20;;;17.60;99.90;;;;;;5072782;28;20213;-65
2022/08/18 01:13:55;;;;;;;95.40;54.03;;;17.60;99.90;;;;;;5072443;28;20240;-65
2022/08/18 01:21:57;;;;;;;92.60;52.00;;;17.50;99.90;;;;;;5072571;28;20265;-65
2022/08/18 01:27:10;;;;;;;89.73;52.77;;;17.50;99.90;;;;;;5071739;28;20201;-64
2022/08/18 01:29:37;;;;;;;95.53;53.37;;;17.50;99.90;;;;;;5072532;28;20209;-65
2022/08/18 01:32:04;;;;;;;101.43;55.90;;;17.40;99.90;;;;;;5072374;28;20730;-65
2022/08/18 01:34:30;;;;;;;101.00;53.63;;;17.40;99.90;;;;;;5072384;28;20286;-65
2022/08/18 01:36:57;;;;;;;113.13;55.77;;;17.40;99.90;;;;;;5071914;28;20215;-66
2022/08/18 01:39:26;;;;;;;102.37;54.93;;;17.30;99.90;;;;;;5072142;28;20201;-65
2022/08/18 01:41:52;;;;;;;107.23;56.13;;;17.30;99.90;;;;;;5072154;28;20743;-66
2022/08/18 01:44:19;;;;;;;109.93;55.63;;;17.30;99.90;;;;;;5072147;28;20269;-65
2022/08/18 01:46:45;;;;;;;107.67;56.50;;;17.30;99.90;;;;;;5071959;28;20575;-65
2022/08/18 01:49:13;;;;;;;101.87;56.43;;;17.20;99.90;;;;;;5071940;28;20201;-65
2022/08/18 01:51:41;;;;;;;108.50;56.60;;;17.30;99.90;;;;;;5071793;28;20205;-65
2022/08/18 01:54:14;;;;;;;98.93;56.23;;;17.30;99.90;;;;;;5072180;28;20259;-65
2022/08/18 01:56:43;;;;;;;101.13;54.73;;;17.30;99.90;;;;;;5071755;28;20211;-65
2022/08/18 01:59:13;;;;;;;104.63;54.33;;;17.30;99.90;;;;;;5072193;28;20586;-65
2022/08/18 02:01:40;;;;;;;99.57;54.53;;;17.30;99.90;;;;;;5071821;28;20208;-64
2022/08/18 02:04:09;;;;;;;106.83;56.23;;;17.20;99.90;;;;;;5072048;28;20229;-65
2022/08/18 02:06:37;;;;;;;99.80;55.80;;;17.20;99.90;;;;;;5071757;28;20642;-65
2022/08/18 02:09:04;;;;;;;105.10;54.67;;;17.20;99.90;;;;;;5072331;28;20200;-65
2022/08/18 02:11:30;;;;;;;111.67;57.47;;;17.20;99.90;;;;;;5071961;28;20208;-65
2022/08/18 02:13:58;;;;;;;115.07;59.67;;;17.30;99.90;;;;;;5071829;28;20269;-65
2022/08/18 02:16:25;;;;;;;126.60;61.23;;;17.30;99.90;;;;;;5071457;28;20251;-65
2022/08/18 02:18:52;;;;;;;136.83;64.60;;;17.40;99.90;;;;;;5072075;28;20756;-66
2022/08/18 02:21:20;;;;;;;138.07;65.50;;;17.50;99.90;;;;;;5071623;28;20213;-65
2022/08/18 02:23:47;;;;;;;143.20;66.17;;;17.50;99.90;;;;;;5071599;28;20652;-65
2022/08/18 02:26:17;;;;;;;140.90;66.40;;;17.50;99.90;;;;;;5071355;28;20232;-65
2022/08/18 02:28:43;;;;;;;151.40;69.50;;;17.60;99.90;;;;;;5071692;28;20290;-65
2022/08/18 02:31:14;;;;;;;152.23;67.00;;;17.70;99.90;;;;;;5071598;28;20262;-65
2022/08/18 02:33:41;;;;;;;144.23;66.80;;;17.70;99.90;;;;;;5071782;28;20268;-65
2022/08/18 02:36:08;;;;;;;138.53;64.77;;;17.70;99.90;;;;;;5071365;28;20204;-66
2022/08/18 02:38:35;;;;;;;144.53;66.17;;;17.80;99.90;;;;;;5071667;28;20216;-65
2022/08/18 02:41:05;;;;;;;142.13;65.27;;;17.70;99.90;;;;;;5071584;28;20212;-65
2022/08/18 02:43:32;;;;;;;138.43;63.73;;;17.70;99.90;;;;;;5071394;28;20225;-66
2022/08/18 02:45:59;;;;;;;129.53;63.37;;;17.70;99.90;;;;;;5071363;28;20229;-65
2022/08/18 02:48:30;;;;;;;142.87;64.50;;;17.70;99.90;;;;;;5071743;28;20201;-66
2022/08/18 02:51:00;;;;;;;138.20;61.70;;;17.70;99.90;;;;;;5071616;28;20239;-65
2022/08/18 02:53:27;;;;;;;143.13;64.80;;;17.70;99.90;;;;;;5071432;28;20225;-65
2022/08/18 02:55:54;;;;;;;142.07;63.50;;;17.60;99.90;;;;;;5071021;28;20675;-65
2022/08/18 02:58:21;;;;;;;144.50;66.50;;;17.60;99.90;;;;;;5071457;28;20201;-64
2022/08/18 03:00:48;;;;;;;142.13;65.30;;;17.60;99.90;;;;;;5071623;28;20216;-65
2022/08/18 03:03:14;;;;;;;142.10;62.93;;;17.60;99.90;;;;;;5073710;28;20301;-66
2022/08/18 03:05:42;;;;;;;142.43;66.60;;;17.60;99.90;;;;;;5075167;28;20283;-65
2022/08/18 03:08:10;;;;;;;141.63;65.00;;;17.70;99.90;;;;;;5074778;28;20295;-65
2022/08/18 03:10:37;;;;;;;131.90;61.10;;;17.70;99.90;;;;;;5075147;28;20201;-66
2022/08/18 03:13:04;;;;;;;137.90;63.93;;;17.70;99.90;;;;;;5075258;28;20278;-65
2022/08/18 03:15:31;;;;;;;129.87;61.73;;;17.70;99.90;;;;;;5075223;28;20629;-64
2022/08/18 03:18:00;;;;;;;134.83;61.40;;;17.70;99.90;;;;;;5074665;28;20216;-65
2022/08/18 03:20:26;;;;;;;138.13;63.30;;;17.70;99.90;;;;;;5074881;28;20228;-65
2022/08/18 03:22:55;;;;;;;139.23;62.50;;;17.70;99.90;;;;;;5074802;28;20229;-66
2022/08/18 03:25:22;;;;;;;137.57;60.27;;;17.70;99.90;;;;;;5074455;28;20229;-65
2022/08/18 03:27:48;;;;;;;127.83;58.50;;;17.70;99.90;;;;;;5074665;28;20262;-65
2022/08/18 03:30:15;;;;;;;130.10;59.87;;;17.70;99.90;;;;;;5074732;28;20209;-65
2022/08/18 03:32:42;;;;;;;129.37;61.37;;;17.70;99.90;;;;;;5074580;28;20769;-65
2022/08/18 03:35:09;;;;;;;118.23;56.63;;;17.70;99.90;;;;;;5074443;28;20201;-65
2022/08/18 03:37:36;;;;;;;131.63;59.47;;;17.70;99.90;;;;;;5074148;28;20291;-65
2022/08/18 03:40:04;;;;;;;126.43;58.47;;;17.70;99.90;;;;;;5074540;28;20291;-64
2022/08/18 03:42:31;;;;;;;127.57;57.60;;;17.70;99.90;;;;;;5074536;28;20264;-66
2022/08/18 03:44:58;;;;;;;131.77;58.93;;;17.60;99.90;;;;;;5074440;28;20274;-64
2022/08/18 03:47:26;;;;;;;149.13;58.73;;;17.60;99.90;;;;;;5074223;28;20250;-65
2022/08/18 03:49:52;;;;;;;152.53;60.33;;;17.50;99.90;;;;;;5074302;28;20266;-65
2022/08/18 03:52:19;;;;;;;146.13;58.23;;;17.50;99.90;;;;;;5074362;28;20232;-66
2022/08/18 03:54:46;;;;;;;153.83;59.53;;;17.50;99.90;;;;;;5074501;28;20204;-65
2022/08/18 03:57:14;;;;;;;150.63;58.50;;;17.60;99.90;;;;;;5073999;28;20234;-66
2022/08/18 03:59:42;;;;;;;148.50;62.80;;;17.60;99.90;;;;;;5074468;28;20209;-66
2022/08/18 04:02:10;;;;;;;156.37;62.20;;;17.60;99.90;;;;;;5074009;28;20707;-65
2022/08/18 04:04:36;;;;;;;154.67;61.93;;;17.60;99.90;;;;;;5074117;28;20204;-65
2022/08/18 04:07:07;;;;;;;147.33;61.37;;;17.70;99.90;;;;;;5074021;28;20345;-67
2022/08/18 04:09:35;;;;;;;136.37;57.40;;;17.70;99.90;;;;;;5075410;28;20208;-67
2022/08/18 04:12:09;;;;;;;158.50;63.23;;;17.70;99.90;;;;;;5075068;28;20726;-66
2022/08/18 04:14:37;;;;;;;145.77;60.27;;;17.70;99.90;;;;;;5075015;28;20247;-66
2022/08/18 04:17:04;;;;;;;153.00;62.80;;;17.70;99.90;;;;;;5073286;28;20279;-66
2022/08/18 04:19:33;;;;;;;159.70;65.17;;;17.70;99.90;;;;;;5073596;28;20683;-66
2022/08/18 04:22:02;;;;;;;161.57;63.80;;;17.70;99.90;;;;;;5073753;28;20221;-66
2022/08/18 04:24:30;;;;;;;163.00;63.67;;;17.70;99.90;;;;;;5073865;28;20293;-66
2022/08/18 04:26:59;;;;;;;167.10;66.07;;;17.70;99.90;;;;;;5073467;28;20681;-66
2022/08/18 04:29:27;;;;;;;167.53;66.23;;;17.70;99.90;;;;;;5074117;28;20200;-66
2022/08/18 04:31:55;;;;;;;170.13;66.63;;;17.60;99.90;;;;;;5073371;28;20270;-66
2022/08/18 04:34:22;;;;;;;187.67;68.47;;;17.60;99.90;;;;;;5073646;28;20258;-66
2022/08/18 04:36:52;;;;;;;180.00;67.20;;;17.70;99.90;;;;;;5073300;28;20205;-65
2022/08/18 04:39:20;;;;;;;175.73;65.53;;;17.70;99.90;;;;;;5073459;28;20211;-66
2022/08/18 04:41:48;;;;;;;175.13;64.57;;;17.70;99.90;;;;;;5073334;28;20292;-66
2022/08/18 04:44:16;;;;;;;173.97;68.47;;;17.80;99.90;;;;;;5073120;28;20754;-66
2022/08/18 04:46:46;;;;;;;180.73;66.70;;;17.60;99.90;;;;;;5073098;28;20225;-66
2022/08/18 04:49:15;;;;;;;188.40;69.63;;;17.60;99.90;;;;;;5073690;28;20211;-66
2022/08/18 04:53:43;;;;;;;197.17;72.43;;;17.60;99.90;;;;;;5073196;28;20201;-66
2022/08/18 04:54:30;;;;;;;202.97;70.80;;;17.60;99.90;;;;;;5072912;28;20204;-66
2022/08/18 04:56:56;;;;;;;201.97;71.63;;;17.60;99.90;;;;;;5072618;28;20536;-65
2022/08/18 04:59:24;;;;;;;215.10;74.27;;;17.60;99.90;;;;;;5073163;28;20213;-66
2022/08/18 05:01:50;;;;;;;206.90;70.10;;;17.70;99.90;;;;;;5073022;28;20304;-66
2022/08/18 05:04:18;;;;;;;222.20;73.47;;;17.80;99.90;;;;;;5072716;28;20204;-66
2022/08/18 05:06:46;;;;;;;202.67;71.17;;;17.70;99.90;;;;;;5072448;28;20233;-66
2022/08/18 05:09:15;;;;;;;169.40;61.67;;;17.70;99.90;;;;;;5072671;28;20209;-66
2022/08/18 05:11:43;;;;;;;138.93;56.13;;;17.80;99.90;;;;;;5072921;28;20535;-66
2022/08/18 05:14:10;;;;;;;133.00;52.57;;;17.80;99.90;;;;;;5072811;28;20205;-66
2022/08/18 05:16:38;;;;;;;133.33;51.73;;;17.80;99.90;;;;;;5072564;28;20251;-66
2022/08/18 05:19:07;;;;;;;128.27;50.00;;;17.80;99.90;;;;;;5072594;28;20241;-66
2022/08/18 05:21:36;;;;;;;119.53;50.57;;;17.80;99.90;;;;;;5072533;28;20262;-64
2022/08/18 05:24:04;;;;;;;128.27;51.30;;;17.70;99.90;;;;;;5072472;28;20738;-65
2022/08/18 05:26:31;;;;;;;125.07;50.23;;;17.70;99.90;;;;;;5071698;28;20579;-66
2022/08/18 05:28:59;;;;;;;123.73;50.33;;;17.70;99.90;;;;;;5072522;28;20255;-66
2022/08/18 05:31:27;;;;;;;119.40;49.90;;;17.70;99.90;;;;;;5072357;28;20208;-65
2022/08/18 05:33:56;;;;;;;128.33;52.77;;;17.80;99.90;;;;;;5072392;28;20653;-66
2022/08/18 05:36:45;;;;;;;126.57;52.97;;;17.80;99.90;;;;;;5071798;28;20575;-65
2022/08/18 05:39:21;;;;;;;129.90;52.47;;;17.80;99.90;;;;;;5072478;28;20210;-66
2022/08/18 05:41:51;;;;;;;118.67;49.37;;;17.80;99.90;;;;;;5072237;28;20208;-67
2022/08/18 05:44:21;;;;;;;120.27;49.23;;;17.90;99.90;;;;;;5072173;28;20205;-66
2022/08/18 05:46:52;;;;;;;119.70;49.17;;;17.90;99.90;;;;;;5071518;28;20224;-66
2022/08/18 05:49:19;;;;;;;120.27;49.30;;;17.90;99.90;;;;;;5072388;28;20287;-66
2022/08/18 05:51:50;;;;;;;118.90;51.30;;;17.90;99.90;;;;;;5071837;28;20629;-66
2022/08/18 05:57:13;;;;;;;120.57;47.27;;;18.00;99.90;;;;;;5071564;28;20857;-65
2022/08/18 05:59:41;;;;;;;112.60;47.77;;;17.90;99.90;;;;;;5072007;28;20282;-66
2022/08/18 06:02:13;;;;;;;116.63;47.27;;;17.90;99.90;;;;;;5071768;28;20271;-66
2022/08/18 06:04:47;;;;;;;111.67;46.67;;;18.00;99.90;;;;;;5072037;28;20671;-65
2022/08/18 06:07:18;;;;;;;117.40;47.57;;;18.00;99.90;;;;;;5071541;28;20316;-65
2022/08/18 06:09:50;;;;;;;115.00;49.30;;;18.00;99.90;;;;;;5071847;28;20264;-66
2022/08/18 06:12:25;;;;;;;116.70;48.27;;;18.00;99.90;;;;;;5071917;28;20316;-66
2022/08/18 06:14:55;;;;;;;129.40;50.00;;;18.00;99.90;;;;;;5072017;28;20289;-66
2022/08/18 06:18:06;;;;;;;125.47;48.17;;;18.00;99.90;;;;;;5071445;28;20216;-65
2022/08/18 06:20:44;;;;;;;122.30;48.47;;;18.10;99.90;;;;;;5029321;28;20217;-66
2022/08/18 06:23:26;;;;;;;129.73;49.53;;;18.10;99.90;;;;;;5069503;28;20618;-66
2022/08/18 06:26:03;;;;;;;120.47;49.57;;;18.20;99.90;;;;;;5071371;28;20227;-65
2022/08/18 06:28:40;;;;;;;127.73;48.67;;;18.20;99.90;;;;;;5071502;28;20282;-66
2022/08/18 06:31:17;;;;;;;118.40;47.77;;;18.30;99.90;;;;;;5071788;28;20705;-66
2022/08/18 06:33:50;;;;;;;117.33;49.00;;;18.30;99.90;;;;;;5071673;28;20228;-65
2022/08/18 06:36:35;;;;;;;113.00;46.50;;;18.30;99.90;;;;;;5072067;28;20204;-66
2022/08/18 06:39:08;;;;;;;108.77;44.37;;;18.30;99.90;;;;;;5075543;28;20216;-66
2022/08/18 06:41:37;;;;;;;107.87;44.93;;;18.30;99.90;;;;;;5075869;28;20201;-66
2022/08/18 06:44:06;;;;;;;99.53;43.93;;;18.20;99.90;;;;;;5075678;28;20393;-65
2022/08/18 06:46:41;;;;;;;96.03;43.90;;;18.10;99.90;;;;;;5075065;28;20221;-64
2022/08/18 06:49:10;;;;;;;99.17;44.67;;;18.20;99.90;;;;;;5075345;28;20212;-65
2022/08/18 06:51:37;;;;;;;101.33;44.10;;;18.30;99.90;;;;;;5075604;28;20212;-65
2022/08/18 06:54:08;;;;;;;97.27;41.53;;;18.50;99.90;;;;;;5075493;28;20282;-65
2022/08/18 06:56:47;;;;;;;85.50;40.03;;;18.70;99.90;;;;;;5075179;28;20620;-65
2022/08/18 06:59:17;;;;;;;80.40;38.10;;;18.80;99.90;;;;;;5075201;28;20709;-65
2022/08/18 07:01:46;;;;;;;83.80;39.87;;;18.90;99.90;;;;;;5075071;28;20201;-65
2022/08/18 07:04:32;;;;;;;79.50;38.97;;;19.00;99.90;;;;;;5075546;28;20710;-64
2022/08/18 07:07:11;;;;;;;83.20;38.57;;;19.10;99.90;;;;;;5074964;28;20282;-64
2022/08/18 07:09:39;;;;;;;72.40;36.23;;;19.20;99.90;;;;;;5075274;28;20200;-64
2022/08/18 07:12:08;;;;;;;84.00;39.33;;;19.20;99.90;;;;;;5074987;28;20258;-64
2022/08/18 07:14:44;;;;;;;88.80;41.87;;;19.20;99.90;;;;;;5075276;28;20291;-64
2022/08/18 07:17:14;;;;;;;93.17;42.27;;;18.90;99.90;;;;;;5074487;28;20254;-65
2022/08/18 07:19:41;;;;;;;89.77;40.97;;;18.90;99.90;;;;;;5075113;28;20296;-65
2022/08/18 07:22:10;;;;;;;85.87;40.60;;;18.90;99.90;;;;;;5074635;28;20225;-64
2022/08/18 07:24:42;;;;;;;88.07;40.23;;;18.80;99.90;;;;;;5075050;28;20204;-64
2022/08/18 07:27:12;;;;;;;92.10;42.80;;;18.90;99.90;;;;;;5074539;28;20376;-64
2022/08/18 07:29:57;;;;;;;84.13;40.47;;;18.90;99.90;;;;;;5074901;28;20266;-64
2022/08/18 07:32:28;;;;;;;84.70;42.20;;;19.00;99.90;;;;;;5074817;28;20259;-64
2022/08/18 07:34:58;;;;;;;83.40;40.13;;;19.00;99.90;;;;;;5074998;28;20200;-64
2022/08/18 07:37:30;;;;;;;85.23;41.60;;;18.90;99.90;;;;;;5074661;28;20192;-64
2022/08/18 07:40:02;;;;;;;86.57;39.97;;;18.80;99.90;;;;;;5074751;28;20610;-64
2022/08/18 07:42:38;;;;;;;87.47;40.10;;;18.90;99.90;;;;;;5074530;28;20221;-64
2022/08/18 07:45:12;;;;;;;92.27;40.43;;;19.00;99.90;;;;;;5074999;28;20193;-64
2022/08/18 07:47:49;;;;;;;90.77;39.73;;;18.90;99.90;;;;;;5073556;28;20225;-64
2022/08/18 07:50:16;;;;;;;84.83;38.83;;;19.00;99.90;;;;;;5074526;28;20209;-64
2022/08/18 07:52:49;;;;;;;93.60;43.67;;;19.00;99.90;;;;;;5074272;28;20290;-64
2022/08/18 07:55:26;;;;;;;97.43;43.07;;;19.10;99.90;;;;;;5074043;28;20185;-64
2022/08/18 07:58:00;;;;;;;99.47;43.10;;;19.20;99.90;;;;;;5067932;28;20193;-64
2022/08/18 08:00:33;;;;;;;95.03;43.30;;;19.20;99.90;;;;;;5073742;28;20235;-64
2022/08/18 08:03:18;;;;;;;94.93;41.73;;;19.10;99.90;;;;;;5073759;28;20255;-64
2022/08/18 08:05:50;;;;;;;99.53;44.30;;;19.20;99.90;;;;;;5073607;28;20209;-66
2022/08/18 08:08:22;;;;;;;89.90;40.23;;;19.30;99.90;;;;;;5073471;28;20205;-66
2022/08/18 08:11:03;;;;;;;102.03;46.43;;;19.30;99.90;;;;;;5073942;28;20190;-67
2022/08/18 08:13:39;;;;;;;94.00;45.20;;;19.50;99.90;;;;;;5073832;28;20298;-67
2022/08/18 08:16:16;;;;;;;83.87;41.43;;;19.60;99.90;;;;;;5073641;28;20197;-67
2022/08/18 08:18:50;;;;;;;79.93;39.87;;;19.80;99.90;;;;;;5073210;28;20212;-69
2022/08/18 08:21:19;;;;;;;72.60;38.07;;;19.80;99.90;;;;;;5073417;28;20270;-65
2022/08/18 08:23:52;;;;;;;111.17;48.23;;;19.90;99.90;;;;;;5073549;28;20232;-67
2022/08/18 08:26:30;;;;;;;71.00;38.50;;;19.90;99.90;;;;;;5071898;28;20640;-66
2022/08/18 08:29:09;;;;;;;66.77;36.57;;;20.00;99.90;;;;;;5072971;28;20208;-66
2022/08/18 08:31:45;;;;;;;65.87;36.67;;;20.20;99.90;;;;;;5073381;28;20205;-66
2022/08/18 08:34:17;;;;;;;66.07;37.73;;;20.30;99.90;;;;;;5073121;28;20257;-67
2022/08/18 08:36:46;;;;;;;65.37;35.13;;;20.40;99.90;;;;;;5071940;28;20563;-66
2022/08/18 08:39:19;;;;;;;66.93;35.90;;;20.50;99.90;;;;;;5073914;28;20262;-66
2022/08/18 08:41:51;;;;;;;63.53;35.07;;;20.60;99.90;;;;;;5073189;28;20251;-66
2022/08/18 08:44:22;;;;;;;61.57;36.47;;;20.90;99.90;;;;;;5073337;28;20213;-66
2022/08/18 08:46:54;;;;;;;66.77;36.23;;;20.60;99.90;;;;;;5073035;28;20216;-66
2022/08/18 08:49:30;;;;;;;64.23;35.77;;;20.80;99.90;;;;;;5073317;28;20212;-66
2022/08/18 08:52:03;;;;;;;65.97;37.80;;;21.00;99.90;;;;;;5073179;28;20220;-66
2022/08/18 08:54:39;;;;;;;69.20;37.33;;;20.90;26.50;;;;;;5073336;28;20257;-66
2022/08/18 08:57:09;;;;;;;63.47;36.23;;;21.00;52.30;;;;;;5073141;28;20205;-66
2022/08/18 08:59:39;;;;;;;61.43;36.07;;;21.20;64.60;;;;;;5072298;28;20205;-66
2022/08/18 09:02:28;;;;;;;58.90;34.97;;;21.40;67.30;;;;;;5073300;28;20279;-66
2022/08/18 09:05:04;;;;;;;62.63;36.20;;;21.30;27.90;;;;;;5071243;28;20267;-66
2022/08/18 09:08:01;;;;;;;61.33;36.17;;;21.40;32.90;;;;;;5072722;28;20224;-66
2022/08/18 09:10:51;;;;;;;64.50;38.00;;;21.40;15.70;;;;;;5072961;28;20291;-66
2022/08/18 09:13:49;;;;;;;66.20;38.30;;;21.60;4.00;;;;;;5072730;28;20282;-66
2022/08/18 09:16:28;;;;;;;61.17;35.23;;;21.70;1.00;;;;;;5072771;28;20209;-66
2022/08/18 09:19:11;;;;;;;58.83;36.10;;;21.80;1.00;;;;;;5072744;28;20278;-66
2022/08/18 09:21:43;;;;;;;59.17;36.57;;;21.70;1.00;;;;;;5073190;28;20278;-66
2022/08/18 09:24:24;;;;;;;61.27;37.07;;;21.60;1.00;;;;;;5073025;28;20797;-66
2022/08/18 09:26:53;;;;;;;55.53;35.37;;;21.50;1.00;;;;;;5072641;28;20260;-66
2022/08/18 09:29:25;;;;;;;55.53;34.93;;;21.30;1.00;;;;;;5072469;28;20220;-66
2022/08/18 09:32:35;;;;;;;54.33;35.10;;;21.50;1.00;;;;;;5072507;28;20263;-66
2022/08/18 09:35:14;;;;;;;53.00;34.57;;;21.60;1.00;;;;;;5061574;28;20258;-66
2022/08/18 09:41:30;;;;;;;54.53;34.50;;;21.80;1.00;;;;;;5072064;28;20658;-66
2022/08/18 09:43:34;;;;;;;53.50;35.43;;;21.90;1.00;;;;;;5068952;28;20231;-64
2022/08/18 09:46:04;;;;;;;52.03;35.30;;;22.00;1.00;;;;;;5071560;28;20212;-63
2022/08/18 09:48:34;;;;;;;50.20;33.73;;;21.90;1.00;;;;;;5071374;28;20703;-64
2022/08/18 09:51:32;;;;;;;52.40;35.00;;;22.10;1.00;;;;;;5072022;28;20204;-66
2022/08/18 09:54:12;;;;;;;54.00;35.13;;;22.30;1.00;;;;;;5071512;28;20204;-64
2022/08/18 09:57:17;;;;;;;55.77;35.90;;;22.20;1.00;;;;;;5070964;28;20287;-66
2022/08/18 10:00:18;;;;;;;55.90;34.10;;;22.20;1.00;;;;;;5050180;28;20204;-66
2022/08/18 10:03:11;;;;;;;55.93;36.73;;;22.20;1.00;;;;;;5071706;28;20224;-65
2022/08/18 10:05:40;;;;;;;65.60;38.10;;;22.20;1.00;;;;;;5071283;28;20321;-65
2022/08/18 10:08:39;;;;;;;57.10;35.47;;;22.20;1.00;;;;;;5071374;28;20229;-64
2022/08/18 10:11:22;;;;;;;54.60;35.07;;;22.00;1.00;;;;;;5071195;28;20258;-65
2022/08/18 10:14:04;;;;;;;60.20;37.40;;;22.10;1.00;;;;;;5071612;28;20232;-65
2022/08/18 10:16:40;;;;;;;59.10;37.53;;;22.30;1.00;;;;;;5071077;28;20255;-64
2022/08/18 10:19:19;;;;;;;59.13;38.17;;;22.30;1.00;;;;;;5071365;28;20268;-63
2022/08/18 10:22:07;;;;;;;63.13;37.33;;;22.40;1.00;;;;;;5071148;28;20224;-64
2022/08/18 10:24:40;;;;;;;59.87;38.17;;;22.60;1.00;;;;;;5071251;28;20200;-64
2022/08/18 10:27:12;;;;;;;58.33;37.20;;;22.60;1.00;;;;;;5070929;28;20294;-64
2022/08/18 10:29:58;;;;;;;54.50;35.00;;;22.60;99.90;;;;;;5071020;28;20204;-64
2022/08/18 10:32:44;;;;;;;56.73;36.30;;;22.70;99.90;;;;;;5070931;28;20235;-64
2022/08/18 10:35:51;;;;;;;60.33;36.93;;;22.30;99.90;;;;;;5072041;28;20295;-65
2022/08/18 10:38:52;;;;;;;56.87;34.77;;;22.40;1.00;;;;;;5071046;28;20197;-62
2022/08/18 10:41:26;;;;;;;53.50;34.73;;;22.40;99.90;;;;;;5070153;28;20211;-64
2022/08/18 10:43:54;;;;;;;53.10;35.67;;;22.50;1.00;;;;;;5070406;28;20228;-61
2022/08/18 10:46:24;;;;;;;52.17;33.50;;;22.50;99.90;;;;;;5071177;28;20230;-63
2022/08/18 10:49:00;;;;;;;55.60;36.20;;;22.50;99.90;;;;;;5070874;28;20227;-66
2022/08/18 10:51:42;;;;;;;54.23;35.83;;;22.50;99.90;;;;;;5071746;28;20208;-66
2022/08/18 10:54:20;;;;;;;49.90;32.13;;;22.60;99.90;;;;;;5071134;28;20273;-65
2022/08/18 10:56:50;;;;;;;57.50;37.37;;;22.70;99.90;;;;;;5070844;28;20667;-64
2022/08/18 10:59:24;;;;;;;50.67;33.27;;;22.60;99.90;;;;;;5070845;28;20227;-64
2022/08/18 11:02:08;;;;;;;49.30;32.27;;;22.50;99.90;;;;;;5071330;28;20205;-64
2022/08/18 11:04:37;;;;;;;50.13;34.33;;;22.50;99.90;;;;;;5070910;28;20243;-64
2022/08/18 11:07:09;;;;;;;46.23;30.23;;;22.60;99.90;;;;;;5070356;28;20653;-65
2022/08/18 11:09:40;;;;;;;359.57;50.63;;;22.90;99.90;;;;;;5071284;28;20227;-65
2022/08/18 11:12:07;;;;;;;53.47;34.47;;;23.30;99.90;;;;;;5071461;28;20282;-65
2022/08/18 11:15:06;;;;;;;50.20;34.83;;;23.60;1.00;;;;;;5071194;28;20201;-65
2022/08/18 11:17:47;;;;;;;47.20;32.00;;;23.00;99.90;;;;;;5070914;28;20228;-66
2022/08/18 11:20:17;;;;;;;51.03;34.47;;;23.20;99.90;;;;;;5070457;28;20213;-65
2022/08/18 11:22:52;;;;;;;55.33;36.03;;;23.40;99.90;;;;;;5070646;28;20271;-64
2022/08/18 11:25:26;;;;;;;46.97;33.07;;;23.50;93.30;;;;;;5074601;28;20216;-62
2022/08/18 11:27:53;;;;;;;50.83;36.50;;;23.20;99.90;;;;;;5074071;28;20232;-66
2022/08/18 11:30:21;;;;;;;49.07;35.40;;;23.30;1.00;;;;;;5074367;28;20784;-56
2022/08/18 11:32:49;;;;;;;49.53;36.67;;;23.00;1.00;;;;;;5073714;28;20307;-62
2022/08/18 11:35:20;;;;;;;51.90;38.23;;;23.20;1.00;;;;;;5074270;28;20763;-61
2022/08/18 11:37:50;;;;;;;50.63;38.30;;;22.80;1.00;;;;;;5073769;28;20278;-59
2022/08/18 11:40:40;;;;;;;50.67;37.40;;;22.60;1.00;;;;;;5074410;28;20299;-61
2022/08/18 11:43:13;;;;;;;49.37;36.80;;;22.80;1.00;;;;;;5070541;28;20229;-61
2022/08/18 11:45:52;;;;;;;46.97;34.90;;;22.70;99.90;;;;;;5074312;28;20209;-64
2022/08/18 11:48:23;;;;;;;50.27;36.30;;;22.70;99.90;;;;;;5073740;28;20734;-63
2022/08/18 11:51:00;;;;;;;48.10;36.37;;;22.60;99.90;;;;;;5073903;28;20641;-63
2022/08/18 11:53:37;;;;;;;50.17;36.17;;;22.50;1.00;;;;;;5073654;28;20307;-63
2022/08/18 11:56:16;;;;;;;49.33;36.03;;;22.40;1.00;;;;;;5073692;28;20204;-63
2022/08/18 11:58:45;;;;;;;50.37;35.83;;;22.50;1.00;;;;;;5073971;28;20205;-62
2022/08/18 12:01:33;;;;;;;50.47;37.33;;;22.40;1.00;;;;;;5073769;28;20212;-65
2022/08/18 12:04:09;;;;;;;45.10;32.83;;;22.40;99.90;;;;;;5073428;28;20220;-64
2022/08/18 12:06:39;;;;;;;41.53;31.77;;;22.40;99.90;;;;;;5073569;28;20204;-64
2022/08/18 12:09:14;;;;;;;42.63;34.37;;;22.50;1.00;;;;;;5073554;28;20282;-64
2022/08/18 12:11:52;;;;;;;40.73;32.53;;;22.50;99.90;;;;;;5073664;28;20212;-63
2022/08/18 12:14:21;;;;;;;42.00;29.50;;;22.50;99.90;;;;;;5073226;28;20283;-65
2022/08/18 12:16:48;;;;;;;36.47;29.57;;;22.40;99.90;;;;;;5073362;28;20213;-63
2022/08/18 12:19:16;;;;;;;40.53;30.27;;;22.60;1.00;;;;;;5073636;28;20250;-62
2022/08/18 12:21:45;;;;;;;38.10;28.80;;;22.50;32.80;;;;;;5073310;28;20205;-63
2022/08/18 12:24:20;;;;;;;31.70;25.40;;;22.30;56.00;;;;;;5073290;28;20263;-64
2022/08/18 12:26:47;;;;;;;29.60;23.77;;;22.30;99.90;;;;;;5072779;28;20228;-64
2022/08/18 12:29:16;;;;;;;32.63;24.63;;;22.30;99.90;;;;;;5073314;28;20638;-64
2022/08/18 12:31:43;;;;;;;32.63;26.27;;;22.20;99.90;;;;;;5073350;28;20215;-66
2022/08/18 12:34:10;;;;;;;25.67;20.93;;;22.10;99.90;;;;;;5072419;28;20351;-66
2022/08/18 12:36:37;;;;;;;24.27;19.00;;;22.00;1.00;;;;;;5073173;28;20211;-64
2022/08/18 12:39:04;;;;;;;26.73;20.40;;;22.00;99.90;;;;;;5073549;28;20259;-65
2022/08/18 12:41:31;;;;;;;31.67;23.43;;;22.10;1.00;;;;;;5073510;28;20282;-65
2022/08/18 12:43:58;;;;;;;27.67;22.20;;;22.10;1.00;;;;;;5073414;28;20212;-65
2022/08/18 12:46:26;;;;;;;29.27;21.60;;;22.20;1.00;;;;;;5072821;28;20205;-64
2022/08/18 12:48:53;;;;;;;24.73;21.07;;;22.30;1.00;;;;;;5073220;28;20306;-64
2022/08/18 12:51:20;;;;;;;27.03;18.83;;;22.40;1.00;;;;;;5073299;28;20258;-65
2022/08/18 12:53:46;;;;;;;22.47;17.83;;;22.50;1.00;;;;;;5072935;28;20228;-65
2022/08/18 12:56:20;;;;;;;21.07;17.57;;;22.60;99.90;;;;;;5072976;28;20212;-64
2022/08/18 12:58:48;;;;;;;21.47;17.17;;;22.60;1.00;;;;;;5073163;28;20200;-63
2022/08/18 13:01:15;;;;;;;22.10;17.10;;;22.60;1.00;;;;;;5073216;28;20240;-64
2022/08/18 13:03:44;;;;;;;18.67;16.20;;;22.60;1.00;;;;;;5072851;28;20719;-65
2022/08/18 13:06:11;;;;;;;19.03;17.03;;;22.90;99.90;;;;;;5072560;28;20303;-64